sensor_id;sensor_type;location;lat;lon;timestamp;temperature;humidity
11650;DHT22;5881;48.522;7.682;2023-05-29T00:00:07;16.10;1.00
11650;DHT22;5881;48.522;7.682;2023-05-29T00:02:34;16.20;1.00
11650;DHT22;5881;48.522;7.682;2023-05-29T00:04:59;16.30;1.00
11650;DHT22;5881;48.522;7.682;2023-05-29T00:07:29;16.30;1.00
11650;DHT22;5881;48.522;7.682;2023-05-29T00:09:55;16.40;1.00
11650;DHT22;5881;48.522;7.682;2023-05-29T00:12:20;16.40;1.00
11650;DHT22;5881;48.522;7.682;2023-05-29T00:14:48;16.50;1.00
11650;DHT22;5881;48.522;7.682;2023-05-29T00:17:13;16.50;1.00
11650;DHT22;5881;48.522;7.682;2023-05-29T00:19:43;16.50;1.00
11650;DHT22;5881;48.522;7.682;2023-05-29T00:22:09;16.50;1.00
11650;DHT22;5881;48.522;7.682;2023-05-29T00:24:35;16.50;1.00
11650;DHT22;5881;48.522;7.682;2023-05-29T00:27:01;16.50;1.00
11650;DHT22;5881;48.522;7.682;2023-05-29T00:29:26;16.50;1.00
11650;DHT22;5881;48.522;7.682;2023-05-29T00:31:53;16.50;1.00
11650;DHT22;5881;48.522;7.682;2023-05-29T00:34:19;16.50;1.00
11650;DHT22;5881;48.522;7.682;2023-05-29T00:36:45;16.40;1.00
11650;DHT22;5881;48.522;7.682;2023-05-29T00:39:11;16.50;1.00
11650;DHT22;5881;48.522;7.682;2023-05-29T00:41:37;16.40;1.00
11650;DHT22;5881;48.522;7.682;2023-05-29T00:44:03;16.40;1.00
11650;DHT22;5881;48.522;7.682;2023-05-29T00:46:30;16.50;1.00
11650;DHT22;5881;48.522;7.682;2023-05-29T00:48:58;16.40;1.00
11650;DHT22;5881;48.522;7.682;2023-05-29T00:51:25;16.40;1.00
11650;DHT22;5881;48.522;7.682;2023-05-29T00:53:52;16.40;1.00
11650;DHT22;5881;48.522;7.682;2023-05-29T00:56:19;16.40;1.00
11650;DHT22;5881;48.522;7.682;2023-05-29T00:58:49;16.50;1.00
11650;DHT22;5881;48.522;7.682;2023-05-29T01:01:18;16.50;1.00
11650;DHT22;5881;48.522;7.682;2023-05-29T01:03:44;16.40;1.00
11650;DHT22;5881;48.522;7.682;2023-05-29T01:06:10;16.30;1.00
11650;DHT22;5881;48.522;7.682;2023-05-29T01:08:36;16.40;1.00
11650;DHT22;5881;48.522;7.682;2023-05-29T01:11:31;16.30;1.00
11650;DHT22;5881;48.522;7.682;2023-05-29T01:14:05;16.30;1.00
11650;DHT22;5881;48.522;7.682;2023-05-29T01:16:38;16.20;1.00
11650;DHT22;5881;48.522;7.682;2023-05-29T01:27:05;16.10;1.00
11650;DHT22;5881;48.522;7.682;2023-05-29T01:29:34;16.10;1.00
11650;DHT22;5881;48.522;7.682;2023-05-29T01:32:00;16.00;1.00
11650;DHT22;5881;48.522;7.682;2023-05-29T01:34:27;16.10;1.00
11650;DHT22;5881;48.522;7.682;2023-05-29T01:36:53;16.10;1.00
11650;DHT22;5881;48.522;7.682;2023-05-29T01:39:19;16.00;1.00
11650;DHT22;5881;48.522;7.682;2023-05-29T01:41:46;16.00;1.00
11650;DHT22;5881;48.522;7.682;2023-05-29T01:44:13;15.90;1.00
11650;DHT22;5881;48.522;7.682;2023-05-29T01:46:43;15.80;1.00
11650;DHT22;5881;48.522;7.682;2023-05-29T01:49:09;15.70;1.00
11650;DHT22;5881;48.522;7.682;2023-05-29T01:51:36;15.60;1.00
11650;DHT22;5881;48.522;7.682;2023-05-29T01:54:02;15.30;1.00
11650;DHT22;5881;48.522;7.682;2023-05-29T01:56:29;15.20;1.00
11650;DHT22;5881;48.522;7.682;2023-05-29T01:58:55;15.10;1.00
11650;DHT22;5881;48.522;7.682;2023-05-29T02:01:22;14.90;1.00
11650;DHT22;5881;48.522;7.682;2023-05-29T02:03:47;14.80;1.00
11650;DHT22;5881;48.522;7.682;2023-05-29T02:06:13;14.70;1.00
11650;DHT22;5881;48.522;7.682;2023-05-29T02:08:39;14.70;1.00
11650;DHT22;5881;48.522;7.682;2023-05-29T02:11:04;14.60;1.00
11650;DHT22;5881;48.522;7.682;2023-05-29T02:13:31;14.50;1.00
11650;DHT22;5881;48.522;7.682;2023-05-29T02:15:56;14.30;1.00
11650;DHT22;5881;48.522;7.682;2023-05-29T02:18:22;14.30;1.00
11650;DHT22;5881;48.522;7.682;2023-05-29T02:20:47;14.20;1.00
11650;DHT22;5881;48.522;7.682;2023-05-29T02:23:13;14.20;1.00
11650;DHT22;5881;48.522;7.682;2023-05-29T02:25:40;14.20;1.00
11650;DHT22;5881;48.522;7.682;2023-05-29T02:28:06;14.20;1.00
11650;DHT22;5881;48.522;7.682;2023-05-29T02:30:32;14.10;1.00
11650;DHT22;5881;48.522;7.682;2023-05-29T02:32:57;14.10;1.00
11650;DHT22;5881;48.522;7.682;2023-05-29T02:35:23;13.90;1.00
11650;DHT22;5881;48.522;7.682;2023-05-29T02:37:49;13.90;1.00
11650;DHT22;5881;48.522;7.682;2023-05-29T02:40:15;13.90;1.00
11650;DHT22;5881;48.522;7.682;2023-05-29T02:42:41;13.80;1.00
11650;DHT22;5881;48.522;7.682;2023-05-29T02:45:07;13.80;1.00
11650;DHT22;5881;48.522;7.682;2023-05-29T02:47:33;13.70;1.00
11650;DHT22;5881;48.522;7.682;2023-05-29T02:49:58;13.70;1.00
11650;DHT22;5881;48.522;7.682;2023-05-29T02:52:24;13.60;1.00
11650;DHT22;5881;48.522;7.682;2023-05-29T02:54:49;13.50;1.00
11650;DHT22;5881;48.522;7.682;2023-05-29T02:57:15;13.50;1.00
11650;DHT22;5881;48.522;7.682;2023-05-29T02:59:41;13.50;1.00
11650;DHT22;5881;48.522;7.682;2023-05-29T03:02:07;13.70;1.00
11650;DHT22;5881;48.522;7.682;2023-05-29T03:04:32;13.70;1.00
11650;DHT22;5881;48.522;7.682;2023-05-29T03:06:58;13.80;1.00
11650;DHT22;5881;48.522;7.682;2023-05-29T03:09:23;13.80;1.00
11650;DHT22;5881;48.522;7.682;2023-05-29T03:11:49;13.80;1.00
11650;DHT22;5881;48.522;7.682;2023-05-29T03:14:16;13.70;1.00
11650;DHT22;5881;48.522;7.682;2023-05-29T03:16:43;13.70;1.00
11650;DHT22;5881;48.522;7.682;2023-05-29T03:19:09;13.50;1.00
11650;DHT22;5881;48.522;7.682;2023-05-29T03:21:34;13.40;1.00
11650;DHT22;5881;48.522;7.682;2023-05-29T03:24:01;13.40;1.00
11650;DHT22;5881;48.522;7.682;2023-05-29T03:26:28;13.30;1.00
11650;DHT22;5881;48.522;7.682;2023-05-29T03:28:54;13.20;1.00
11650;DHT22;5881;48.522;7.682;2023-05-29T03:31:19;13.20;1.00
11650;DHT22;5881;48.522;7.682;2023-05-29T03:33:45;13.10;1.00
11650;DHT22;5881;48.522;7.682;2023-05-29T03:36:11;13.10;1.00
11650;DHT22;5881;48.522;7.682;2023-05-29T03:38:37;13.00;1.00
11650;DHT22;5881;48.522;7.682;2023-05-29T03:41:02;13.20;1.00
11650;DHT22;5881;48.522;7.682;2023-05-29T03:43:28;13.40;1.00
11650;DHT22;5881;48.522;7.682;2023-05-29T03:45:53;13.50;1.00
11650;DHT22;5881;48.522;7.682;2023-05-29T03:48:19;13.50;1.00
11650;DHT22;5881;48.522;7.682;2023-05-29T03:50:46;13.50;1.00
11650;DHT22;5881;48.522;7.682;2023-05-29T03:53:12;13.50;1.00
11650;DHT22;5881;48.522;7.682;2023-05-29T03:55:37;13.50;1.00
11650;DHT22;5881;48.522;7.682;2023-05-29T03:58:03;13.40;1.00
11650;DHT22;5881;48.522;7.682;2023-05-29T04:00:29;13.40;1.00
11650;DHT22;5881;48.522;7.682;2023-05-29T04:02:55;13.30;1.00
11650;DHT22;5881;48.522;7.682;2023-05-29T04:05:21;13.30;1.00
11650;DHT22;5881;48.522;7.682;2023-05-29T04:07:47;13.20;1.00
11650;DHT22;5881;48.522;7.682;2023-05-29T04:10:13;13.20;1.00
11650;DHT22;5881;48.522;7.682;2023-05-29T04:12:38;13.20;1.00
11650;DHT22;5881;48.522;7.682;2023-05-29T04:15:05;13.20;1.00
11650;DHT22;5881;48.522;7.682;2023-05-29T04:17:31;13.30;1.00
11650;DHT22;5881;48.522;7.682;2023-05-29T04:19:56;13.30;1.00
11650;DHT22;5881;48.522;7.682;2023-05-29T04:22:22;13.30;1.00
11650;DHT22;5881;48.522;7.682;2023-05-29T04:24:48;13.40;1.00
11650;DHT22;5881;48.522;7.682;2023-05-29T04:27:13;13.50;1.00
11650;DHT22;5881;48.522;7.682;2023-05-29T04:29:40;13.50;1.00
11650;DHT22;5881;48.522;7.682;2023-05-29T04:32:08;13.70;1.00
11650;DHT22;5881;48.522;7.682;2023-05-29T04:34:35;13.80;1.00
11650;DHT22;5881;48.522;7.682;2023-05-29T04:37:02;14.00;1.00
11650;DHT22;5881;48.522;7.682;2023-05-29T04:39:28;14.10;1.00
11650;DHT22;5881;48.522;7.682;2023-05-29T04:41:54;14.20;1.00
11650;DHT22;5881;48.522;7.682;2023-05-29T04:44:21;14.40;1.00
11650;DHT22;5881;48.522;7.682;2023-05-29T04:46:47;14.50;1.00
11650;DHT22;5881;48.522;7.682;2023-05-29T04:49:13;14.90;1.00
11650;DHT22;5881;48.522;7.682;2023-05-29T04:51:39;15.50;1.00
11650;DHT22;5881;48.522;7.682;2023-05-29T04:54:08;16.10;1.00
11650;DHT22;5881;48.522;7.682;2023-05-29T04:56:37;16.50;1.00
11650;DHT22;5881;48.522;7.682;2023-05-29T04:59:05;17.30;1.00
11650;DHT22;5881;48.522;7.682;2023-05-29T05:01:32;17.80;1.00
11650;DHT22;5881;48.522;7.682;2023-05-29T05:03:59;18.30;1.00
11650;DHT22;5881;48.522;7.682;2023-05-29T05:06:25;18.30;1.00
11650;DHT22;5881;48.522;7.682;2023-05-29T05:08:52;19.20;1.00
11650;DHT22;5881;48.522;7.682;2023-05-29T05:11:18;19.80;1.00
11650;DHT22;5881;48.522;7.682;2023-05-29T05:13:44;20.10;1.00
11650;DHT22;5881;48.522;7.682;2023-05-29T05:16:10;20.20;1.00
11650;DHT22;5881;48.522;7.682;2023-05-29T05:18:36;20.00;1.00
11650;DHT22;5881;48.522;7.682;2023-05-29T05:21:02;20.00;1.00
11650;DHT22;5881;48.522;7.682;2023-05-29T05:23:31;20.80;1.00
11650;DHT22;5881;48.522;7.682;2023-05-29T05:25:57;21.00;1.00
11650;DHT22;5881;48.522;7.682;2023-05-29T05:28:23;20.50;1.00
11650;DHT22;5881;48.522;7.682;2023-05-29T05:30:48;20.90;1.00
11650;DHT22;5881;48.522;7.682;2023-05-29T05:33:14;20.80;1.00
11650;DHT22;5881;48.522;7.682;2023-05-29T05:35:40;20.60;1.00
11650;DHT22;5881;48.522;7.682;2023-05-29T05:38:05;20.60;1.00
11650;DHT22;5881;48.522;7.682;2023-05-29T05:40:32;20.80;1.00
11650;DHT22;5881;48.522;7.682;2023-05-29T05:42:57;20.80;1.00
11650;DHT22;5881;48.522;7.682;2023-05-29T05:45:23;21.20;1.00
11650;DHT22;5881;48.522;7.682;2023-05-29T05:47:49;21.50;1.00
11650;DHT22;5881;48.522;7.682;2023-05-29T05:50:14;21.90;1.00
11650;DHT22;5881;48.522;7.682;2023-05-29T05:52:40;22.20;1.00
11650;DHT22;5881;48.522;7.682;2023-05-29T05:55:06;22.70;1.00
11650;DHT22;5881;48.522;7.682;2023-05-29T05:57:33;23.00;1.00
11650;DHT22;5881;48.522;7.682;2023-05-29T06:00:03;23.50;1.00
11650;DHT22;5881;48.522;7.682;2023-05-29T06:02:38;23.20;1.00
11650;DHT22;5881;48.522;7.682;2023-05-29T06:05:04;23.60;1.00
11650;DHT22;5881;48.522;7.682;2023-05-29T06:07:32;24.10;1.00
11650;DHT22;5881;48.522;7.682;2023-05-29T06:09:58;23.90;1.00
11650;DHT22;5881;48.522;7.682;2023-05-29T06:12:23;24.60;1.00
11650;DHT22;5881;48.522;7.682;2023-05-29T06:14:50;24.10;1.00
11650;DHT22;5881;48.522;7.682;2023-05-29T06:17:16;24.60;1.00
11650;DHT22;5881;48.522;7.682;2023-05-29T06:19:41;24.60;1.00
11650;DHT22;5881;48.522;7.682;2023-05-29T06:22:07;24.70;1.00
11650;DHT22;5881;48.522;7.682;2023-05-29T06:24:32;24.40;1.00
11650;DHT22;5881;48.522;7.682;2023-05-29T06:26:58;25.00;1.00
11650;DHT22;5881;48.522;7.682;2023-05-29T06:29:23;25.40;1.00
11650;DHT22;5881;48.522;7.682;2023-05-29T06:31:49;24.90;1.00
11650;DHT22;5881;48.522;7.682;2023-05-29T06:34:15;25.60;1.00
11650;DHT22;5881;48.522;7.682;2023-05-29T06:36:40;25.70;1.00
11650;DHT22;5881;48.522;7.682;2023-05-29T06:39:07;25.30;1.00
11650;DHT22;5881;48.522;7.682;2023-05-29T06:41:33;25.50;1.00
11650;DHT22;5881;48.522;7.682;2023-05-29T06:43:58;25.30;1.00
11650;DHT22;5881;48.522;7.682;2023-05-29T06:46:24;25.70;1.00
11650;DHT22;5881;48.522;7.682;2023-05-29T06:48:49;25.60;1.00
11650;DHT22;5881;48.522;7.682;2023-05-29T06:51:17;25.00;1.00
11650;DHT22;5881;48.522;7.682;2023-05-29T06:53:42;25.40;1.00
11650;DHT22;5881;48.522;7.682;2023-05-29T06:56:08;26.10;1.00
11650;DHT22;5881;48.522;7.682;2023-05-29T06:58:34;26.10;1.00
11650;DHT22;5881;48.522;7.682;2023-05-29T07:01:00;25.90;1.00
11650;DHT22;5881;48.522;7.682;2023-05-29T07:03:26;26.00;1.00
11650;DHT22;5881;48.522;7.682;2023-05-29T07:05:52;26.20;1.00
11650;DHT22;5881;48.522;7.682;2023-05-29T07:08:18;27.30;1.00
11650;DHT22;5881;48.522;7.682;2023-05-29T07:10:44;27.10;1.00
11650;DHT22;5881;48.522;7.682;2023-05-29T07:13:09;27.20;1.00
11650;DHT22;5881;48.522;7.682;2023-05-29T07:15:37;27.30;1.00
11650;DHT22;5881;48.522;7.682;2023-05-29T07:18:02;27.50;1.00
11650;DHT22;5881;48.522;7.682;2023-05-29T07:20:28;27.50;1.00
11650;DHT22;5881;48.522;7.682;2023-05-29T07:22:54;27.40;1.00
11650;DHT22;5881;48.522;7.682;2023-05-29T07:25:19;28.30;1.00
11650;DHT22;5881;48.522;7.682;2023-05-29T07:27:45;27.30;1.00
11650;DHT22;5881;48.522;7.682;2023-05-29T07:30:11;27.70;1.00
11650;DHT22;5881;48.522;7.682;2023-05-29T07:32:36;27.70;1.00
11650;DHT22;5881;48.522;7.682;2023-05-29T07:35:02;28.50;1.00
11650;DHT22;5881;48.522;7.682;2023-05-29T07:37:28;28.20;1.00
11650;DHT22;5881;48.522;7.682;2023-05-29T07:39:55;28.00;1.00
11650;DHT22;5881;48.522;7.682;2023-05-29T07:42:21;28.70;1.00
11650;DHT22;5881;48.522;7.682;2023-05-29T07:44:46;28.50;1.00
11650;DHT22;5881;48.522;7.682;2023-05-29T07:47:13;28.40;1.00
11650;DHT22;5881;48.522;7.682;2023-05-29T07:49:39;27.80;1.00
11650;DHT22;5881;48.522;7.682;2023-05-29T07:52:05;28.30;1.00
11650;DHT22;5881;48.522;7.682;2023-05-29T07:54:31;28.80;1.00
11650;DHT22;5881;48.522;7.682;2023-05-29T07:57:01;28.40;1.00
11650;DHT22;5881;48.522;7.682;2023-05-29T07:59:34;27.60;1.00
11650;DHT22;5881;48.522;7.682;2023-05-29T08:02:00;28.60;1.00
11650;DHT22;5881;48.522;7.682;2023-05-29T08:04:28;27.60;1.00
11650;DHT22;5881;48.522;7.682;2023-05-29T08:06:54;28.10;1.00
11650;DHT22;5881;48.522;7.682;2023-05-29T08:09:19;28.50;1.00
11650;DHT22;5881;48.522;7.682;2023-05-29T08:11:45;28.50;1.00
11650;DHT22;5881;48.522;7.682;2023-05-29T08:14:12;28.00;1.00
11650;DHT22;5881;48.522;7.682;2023-05-29T08:16:37;27.50;1.00
11650;DHT22;5881;48.522;7.682;2023-05-29T08:19:03;28.20;1.00
11650;DHT22;5881;48.522;7.682;2023-05-29T08:21:30;29.10;1.00
11650;DHT22;5881;48.522;7.682;2023-05-29T08:23:57;30.40;1.00
11650;DHT22;5881;48.522;7.682;2023-05-29T08:26:22;30.60;1.00
11650;DHT22;5881;48.522;7.682;2023-05-29T08:28:48;30.30;1.00
11650;DHT22;5881;48.522;7.682;2023-05-29T08:31:14;30.00;1.00
11650;DHT22;5881;48.522;7.682;2023-05-29T08:33:39;30.00;1.00
11650;DHT22;5881;48.522;7.682;2023-05-29T08:36:05;28.70;1.00
11650;DHT22;5881;48.522;7.682;2023-05-29T08:38:31;29.50;1.00
11650;DHT22;5881;48.522;7.682;2023-05-29T08:40:57;30.10;1.00
11650;DHT22;5881;48.522;7.682;2023-05-29T08:43:31;30.10;1.00
11650;DHT22;5881;48.522;7.682;2023-05-29T08:46:00;30.20;1.00
11650;DHT22;5881;48.522;7.682;2023-05-29T08:48:28;30.20;1.00
11650;DHT22;5881;48.522;7.682;2023-05-29T08:50:55;30.90;1.00
11650;DHT22;5881;48.522;7.682;2023-05-29T08:53:22;30.10;1.00
11650;DHT22;5881;48.522;7.682;2023-05-29T08:55:48;29.80;1.00
11650;DHT22;5881;48.522;7.682;2023-05-29T08:58:17;30.80;1.00
11650;DHT22;5881;48.522;7.682;2023-05-29T09:00:47;31.10;1.00
11650;DHT22;5881;48.522;7.682;2023-05-29T09:03:13;31.50;1.00
11650;DHT22;5881;48.522;7.682;2023-05-29T09:05:42;30.80;1.00
11650;DHT22;5881;48.522;7.682;2023-05-29T09:08:10;31.10;1.00
11650;DHT22;5881;48.522;7.682;2023-05-29T09:10:41;30.80;1.00
11650;DHT22;5881;48.522;7.682;2023-05-29T09:13:07;30.10;1.00
11650;DHT22;5881;48.522;7.682;2023-05-29T09:15:34;30.40;1.00
11650;DHT22;5881;48.522;7.682;2023-05-29T09:18:00;31.00;1.00
11650;DHT22;5881;48.522;7.682;2023-05-29T09:20:26;29.00;1.00
11650;DHT22;5881;48.522;7.682;2023-05-29T09:23:03;30.70;1.00
11650;DHT22;5881;48.522;7.682;2023-05-29T09:25:31;31.40;1.00
11650;DHT22;5881;48.522;7.682;2023-05-29T09:27:58;31.70;1.00
11650;DHT22;5881;48.522;7.682;2023-05-29T09:32:59;30.90;1.00
11650;DHT22;5881;48.522;7.682;2023-05-29T09:35:26;31.50;1.00
11650;DHT22;5881;48.522;7.682;2023-05-29T09:37:52;32.00;1.00
11650;DHT22;5881;48.522;7.682;2023-05-29T09:40:18;31.70;1.00
11650;DHT22;5881;48.522;7.682;2023-05-29T09:42:43;30.80;1.00
11650;DHT22;5881;48.522;7.682;2023-05-29T09:45:09;31.30;1.00
11650;DHT22;5881;48.522;7.682;2023-05-29T09:47:35;30.70;1.00
11650;DHT22;5881;48.522;7.682;2023-05-29T09:50:01;31.30;1.00
11650;DHT22;5881;48.522;7.682;2023-05-29T09:52:29;31.00;1.00
11650;DHT22;5881;48.522;7.682;2023-05-29T09:54:55;31.10;1.00
11650;DHT22;5881;48.522;7.682;2023-05-29T09:57:23;31.60;1.00
11650;DHT22;5881;48.522;7.682;2023-05-29T09:59:50;32.10;1.00
11650;DHT22;5881;48.522;7.682;2023-05-29T10:02:17;31.90;1.00
11650;DHT22;5881;48.522;7.682;2023-05-29T10:04:43;32.60;1.00
11650;DHT22;5881;48.522;7.682;2023-05-29T10:07:27;32.00;1.00
11650;DHT22;5881;48.522;7.682;2023-05-29T10:09:59;31.90;1.00
11650;DHT22;5881;48.522;7.682;2023-05-29T10:12:27;32.00;1.00
11650;DHT22;5881;48.522;7.682;2023-05-29T10:14:56;31.60;1.00
11650;DHT22;5881;48.522;7.682;2023-05-29T10:17:26;31.60;1.00
11650;DHT22;5881;48.522;7.682;2023-05-29T10:19:55;31.90;1.00
11650;DHT22;5881;48.522;7.682;2023-05-29T10:22:25;31.80;1.00
11650;DHT22;5881;48.522;7.682;2023-05-29T10:24:52;31.70;1.00
11650;DHT22;5881;48.522;7.682;2023-05-29T10:27:18;32.60;1.00
11650;DHT22;5881;48.522;7.682;2023-05-29T10:32:37;32.10;1.00
11650;DHT22;5881;48.522;7.682;2023-05-29T10:35:12;32.20;1.00
11650;DHT22;5881;48.522;7.682;2023-05-29T10:38:02;32.50;1.00
11650;DHT22;5881;48.522;7.682;2023-05-29T10:40:34;32.30;1.00
11650;DHT22;5881;48.522;7.682;2023-05-29T10:43:00;31.40;1.00
11650;DHT22;5881;48.522;7.682;2023-05-29T10:47:55;31.60;1.00
11650;DHT22;5881;48.522;7.682;2023-05-29T10:50:42;30.70;1.00
11650;DHT22;5881;48.522;7.682;2023-05-29T10:53:09;31.70;1.00
11650;DHT22;5881;48.522;7.682;2023-05-29T10:55:40;30.90;1.00
11650;DHT22;5881;48.522;7.682;2023-05-29T11:00:31;31.00;1.00
11650;DHT22;5881;48.522;7.682;2023-05-29T11:02:58;31.60;1.00
11650;DHT22;5881;48.522;7.682;2023-05-29T11:05:27;31.80;1.00
11650;DHT22;5881;48.522;7.682;2023-05-29T11:07:58;31.60;1.00
11650;DHT22;5881;48.522;7.682;2023-05-29T11:10:55;31.90;1.00
11650;DHT22;5881;48.522;7.682;2023-05-29T11:13:31;31.40;1.00
11650;DHT22;5881;48.522;7.682;2023-05-29T11:16:05;31.70;1.00
11650;DHT22;5881;48.522;7.682;2023-05-29T11:18:45;31.60;1.00
11650;DHT22;5881;48.522;7.682;2023-05-29T11:24:24;31.40;1.00
11650;DHT22;5881;48.522;7.682;2023-05-29T11:26:55;31.40;1.00
11650;DHT22;5881;48.522;7.682;2023-05-29T11:29:27;30.60;1.00
11650;DHT22;5881;48.522;7.682;2023-05-29T11:32:04;30.10;1.00
11650;DHT22;5881;48.522;7.682;2023-05-29T11:34:31;30.80;1.00
11650;DHT22;5881;48.522;7.682;2023-05-29T11:36:59;30.20;1.00
11650;DHT22;5881;48.522;7.682;2023-05-29T11:39:25;29.60;1.00
11650;DHT22;5881;48.522;7.682;2023-05-29T11:41:51;30.00;1.00
11650;DHT22;5881;48.522;7.682;2023-05-29T11:44:19;29.60;1.00
11650;DHT22;5881;48.522;7.682;2023-05-29T11:46:46;30.10;1.00
11650;DHT22;5881;48.522;7.682;2023-05-29T11:49:12;29.50;1.00
11650;DHT22;5881;48.522;7.682;2023-05-29T11:51:37;30.10;1.00
11650;DHT22;5881;48.522;7.682;2023-05-29T11:54:03;29.80;1.00
11650;DHT22;5881;48.522;7.682;2023-05-29T11:56:29;29.80;1.00
11650;DHT22;5881;48.522;7.682;2023-05-29T11:58:57;29.40;1.00
11650;DHT22;5881;48.522;7.682;2023-05-29T12:01:25;29.30;1.00
11650;DHT22;5881;48.522;7.682;2023-05-29T12:03:51;29.80;1.00
11650;DHT22;5881;48.522;7.682;2023-05-29T12:06:34;29.20;1.00
11650;DHT22;5881;48.522;7.682;2023-05-29T12:09:01;29.20;1.00
11650;DHT22;5881;48.522;7.682;2023-05-29T12:11:28;29.20;1.00
11650;DHT22;5881;48.522;7.682;2023-05-29T12:14:01;29.00;1.00
11650;DHT22;5881;48.522;7.682;2023-05-29T12:16:28;29.00;1.00
11650;DHT22;5881;48.522;7.682;2023-05-29T12:18:54;28.30;1.00
11650;DHT22;5881;48.522;7.682;2023-05-29T12:21:21;28.10;1.00
11650;DHT22;5881;48.522;7.682;2023-05-29T12:23:47;28.00;1.00
11650;DHT22;5881;48.522;7.682;2023-05-29T12:26:13;28.20;1.00
11650;DHT22;5881;48.522;7.682;2023-05-29T12:28:44;28.10;1.00
11650;DHT22;5881;48.522;7.682;2023-05-29T12:31:10;27.90;1.00
11650;DHT22;5881;48.522;7.682;2023-05-29T12:33:42;28.60;1.00
11650;DHT22;5881;48.522;7.682;2023-05-29T12:36:09;28.70;1.00
11650;DHT22;5881;48.522;7.682;2023-05-29T12:38:49;28.60;1.00
11650;DHT22;5881;48.522;7.682;2023-05-29T12:41:33;28.50;1.00
11650;DHT22;5881;48.522;7.682;2023-05-29T12:44:01;28.50;1.00
11650;DHT22;5881;48.522;7.682;2023-05-29T12:46:38;28.10;1.00
11650;DHT22;5881;48.522;7.682;2023-05-29T12:49:17;27.80;1.00
11650;DHT22;5881;48.522;7.682;2023-05-29T12:51:45;28.10;1.00
11650;DHT22;5881;48.522;7.682;2023-05-29T12:54:15;28.10;1.00
11650;DHT22;5881;48.522;7.682;2023-05-29T12:56:42;28.00;1.00
11650;DHT22;5881;48.522;7.682;2023-05-29T12:59:08;27.90;1.00
11650;DHT22;5881;48.522;7.682;2023-05-29T13:01:35;27.60;1.00
11650;DHT22;5881;48.522;7.682;2023-05-29T13:04:01;27.60;1.00
11650;DHT22;5881;48.522;7.682;2023-05-29T13:06:27;28.00;1.00
11650;DHT22;5881;48.522;7.682;2023-05-29T13:08:52;28.20;1.00
11650;DHT22;5881;48.522;7.682;2023-05-29T13:11:18;27.90;1.00
11650;DHT22;5881;48.522;7.682;2023-05-29T13:13:44;28.00;1.00
11650;DHT22;5881;48.522;7.682;2023-05-29T13:16:09;27.90;1.00
11650;DHT22;5881;48.522;7.682;2023-05-29T13:18:35;27.70;1.00
11650;DHT22;5881;48.522;7.682;2023-05-29T13:21:01;27.90;1.00
11650;DHT22;5881;48.522;7.682;2023-05-29T13:23:27;27.40;1.00
11650;DHT22;5881;48.522;7.682;2023-05-29T13:25:52;27.20;1.00
11650;DHT22;5881;48.522;7.682;2023-05-29T13:28:18;27.00;1.00
11650;DHT22;5881;48.522;7.682;2023-05-29T13:30:43;27.40;1.00
11650;DHT22;5881;48.522;7.682;2023-05-29T13:33:09;27.70;1.00
11650;DHT22;5881;48.522;7.682;2023-05-29T13:35:35;27.70;1.00
11650;DHT22;5881;48.522;7.682;2023-05-29T13:38:01;27.70;1.00
11650;DHT22;5881;48.522;7.682;2023-05-29T13:40:26;27.60;1.00
11650;DHT22;5881;48.522;7.682;2023-05-29T13:42:53;27.10;1.00
11650;DHT22;5881;48.522;7.682;2023-05-29T13:45:19;27.20;1.00
11650;DHT22;5881;48.522;7.682;2023-05-29T13:47:44;27.10;1.00
11650;DHT22;5881;48.522;7.682;2023-05-29T13:50:10;27.30;1.00
11650;DHT22;5881;48.522;7.682;2023-05-29T13:52:36;27.60;1.00
11650;DHT22;5881;48.522;7.682;2023-05-29T13:55:01;27.20;1.00
11650;DHT22;5881;48.522;7.682;2023-05-29T13:57:34;26.70;1.00
11650;DHT22;5881;48.522;7.682;2023-05-29T13:59:59;27.00;1.00
11650;DHT22;5881;48.522;7.682;2023-05-29T14:02:25;27.30;1.00
11650;DHT22;5881;48.522;7.682;2023-05-29T14:04:50;27.00;1.00
11650;DHT22;5881;48.522;7.682;2023-05-29T14:07:16;26.80;1.00
11650;DHT22;5881;48.522;7.682;2023-05-29T14:09:41;26.80;1.00
11650;DHT22;5881;48.522;7.682;2023-05-29T14:12:07;26.80;1.00
11650;DHT22;5881;48.522;7.682;2023-05-29T14:14:33;26.90;1.00
11650;DHT22;5881;48.522;7.682;2023-05-29T14:17:00;27.00;1.00
11650;DHT22;5881;48.522;7.682;2023-05-29T14:19:25;27.20;1.00
11650;DHT22;5881;48.522;7.682;2023-05-29T14:21:51;27.00;1.00
11650;DHT22;5881;48.522;7.682;2023-05-29T14:24:17;27.30;1.00
11650;DHT22;5881;48.522;7.682;2023-05-29T14:26:44;27.10;1.00
11650;DHT22;5881;48.522;7.682;2023-05-29T14:29:12;26.80;1.00
11650;DHT22;5881;48.522;7.682;2023-05-29T14:31:42;26.90;1.00
11650;DHT22;5881;48.522;7.682;2023-05-29T14:34:08;26.90;1.00
11650;DHT22;5881;48.522;7.682;2023-05-29T14:36:34;26.70;1.00
11650;DHT22;5881;48.522;7.682;2023-05-29T14:39:01;26.80;1.00
11650;DHT22;5881;48.522;7.682;2023-05-29T14:41:27;27.10;1.00
11650;DHT22;5881;48.522;7.682;2023-05-29T14:43:52;27.00;1.00
11650;DHT22;5881;48.522;7.682;2023-05-29T14:46:18;26.70;1.00
11650;DHT22;5881;48.522;7.682;2023-05-29T14:48:44;26.80;1.00
11650;DHT22;5881;48.522;7.682;2023-05-29T14:51:09;26.70;1.00
11650;DHT22;5881;48.522;7.682;2023-05-29T14:53:36;26.60;1.00
11650;DHT22;5881;48.522;7.682;2023-05-29T14:56:01;26.50;1.00
11650;DHT22;5881;48.522;7.682;2023-05-29T14:58:27;26.70;1.00
11650;DHT22;5881;48.522;7.682;2023-05-29T15:00:53;27.00;1.00
11650;DHT22;5881;48.522;7.682;2023-05-29T15:03:18;27.00;1.00
11650;DHT22;5881;48.522;7.682;2023-05-29T15:05:44;26.90;1.00
11650;DHT22;5881;48.522;7.682;2023-05-29T15:08:11;26.70;1.00
11650;DHT22;5881;48.522;7.682;2023-05-29T15:10:36;26.60;1.00
11650;DHT22;5881;48.522;7.682;2023-05-29T15:13:02;26.70;1.00
11650;DHT22;5881;48.522;7.682;2023-05-29T15:15:29;26.90;1.00
11650;DHT22;5881;48.522;7.682;2023-05-29T15:17:55;26.80;1.00
11650;DHT22;5881;48.522;7.682;2023-05-29T15:20:24;26.70;1.00
11650;DHT22;5881;48.522;7.682;2023-05-29T15:22:51;26.60;1.00
11650;DHT22;5881;48.522;7.682;2023-05-29T15:25:17;26.60;1.00
11650;DHT22;5881;48.522;7.682;2023-05-29T15:27:43;26.60;1.00
11650;DHT22;5881;48.522;7.682;2023-05-29T15:30:14;26.40;1.00
11650;DHT22;5881;48.522;7.682;2023-05-29T15:32:41;26.40;1.00
11650;DHT22;5881;48.522;7.682;2023-05-29T15:35:11;26.30;1.00
11650;DHT22;5881;48.522;7.682;2023-05-29T15:37:37;26.30;1.00
11650;DHT22;5881;48.522;7.682;2023-05-29T15:40:04;26.50;1.00
11650;DHT22;5881;48.522;7.682;2023-05-29T15:42:31;26.50;1.00
11650;DHT22;5881;48.522;7.682;2023-05-29T15:44:56;26.20;1.00
11650;DHT22;5881;48.522;7.682;2023-05-29T15:47:22;26.30;1.00
11650;DHT22;5881;48.522;7.682;2023-05-29T15:49:48;26.20;1.00
11650;DHT22;5881;48.522;7.682;2023-05-29T15:52:14;26.20;1.00
11650;DHT22;5881;48.522;7.682;2023-05-29T15:54:39;26.20;1.00
11650;DHT22;5881;48.522;7.682;2023-05-29T15:57:06;26.20;1.00
11650;DHT22;5881;48.522;7.682;2023-05-29T15:59:32;26.40;1.00
11650;DHT22;5881;48.522;7.682;2023-05-29T16:01:58;26.50;1.00
11650;DHT22;5881;48.522;7.682;2023-05-29T16:04:25;26.40;1.00
11650;DHT22;5881;48.522;7.682;2023-05-29T16:06:51;26.20;1.00
11650;DHT22;5881;48.522;7.682;2023-05-29T16:09:16;26.10;1.00
11650;DHT22;5881;48.522;7.682;2023-05-29T16:11:42;26.10;1.00
11650;DHT22;5881;48.522;7.682;2023-05-29T16:14:08;26.00;1.00
11650;DHT22;5881;48.522;7.682;2023-05-29T16:16:34;26.10;1.00
11650;DHT22;5881;48.522;7.682;2023-05-29T16:19:00;26.10;1.00
11650;DHT22;5881;48.522;7.682;2023-05-29T16:21:26;26.10;1.00